createdAt,value
2018-05-13T00:00:10.041Z,18.00
2018-05-13T00:02:38.405Z,19.83
2018-05-13T00:05:06.402Z,19.50
2018-05-13T00:07:34.728Z,19.50
2018-05-13T00:10:03.081Z,19.67
2018-05-13T00:12:31.477Z,19.90
2018-05-13T00:14:59.803Z,19.87
2018-05-13T00:17:28.123Z,21.47
2018-05-13T00:19:56.432Z,20.47
2018-05-13T00:22:24.766Z,20.90
2018-05-13T00:24:53.224Z,21.30
2018-05-13T00:27:21.544Z,21.50
2018-05-13T00:29:49.867Z,20.10
2018-05-13T00:32:18.175Z,22.17
2018-05-13T00:34:46.494Z,21.57
2018-05-13T00:37:14.815Z,21.30
2018-05-13T00:39:43.914Z,23.30
2018-05-13T00:42:11.887Z,22.77
2018-05-13T00:44:40.198Z,22.90
2018-05-13T00:47:08.504Z,22.80
2018-05-13T00:49:36.874Z,22.57
2018-05-13T00:52:04.843Z,22.87
2018-05-13T00:54:44.441Z,23.40
2018-05-13T00:57:13.519Z,24.63
2018-05-13T00:59:41.872Z,24.87
2018-05-13T01:02:10.660Z,24.10
2018-05-13T01:04:38.965Z,25.33
2018-05-13T01:07:07.291Z,24.73
2018-05-13T01:09:35.601Z,24.80
2018-05-13T01:12:03.688Z,24.77
2018-05-13T01:14:32.005Z,24.30
2018-05-13T01:17:00.325Z,24.60
2018-05-13T01:19:28.632Z,23.83
2018-05-13T01:21:56.961Z,25.43
2018-05-13T01:27:20.781Z,24.57
2018-05-13T01:29:49.094Z,22.90
2018-05-13T01:32:17.409Z,24.73
2018-05-13T01:34:45.720Z,27.17
2018-05-13T01:37:13.704Z,25.40
2018-05-13T01:39:42.022Z,25.27
2018-05-13T01:42:10.336Z,25.87
2018-05-13T01:44:39.437Z,24.77
2018-05-13T01:47:07.741Z,26.17
2018-05-13T01:49:36.061Z,28.30
2018-05-13T01:52:04.375Z,26.60
2018-05-13T01:54:33.481Z,27.63
2018-05-13T01:57:01.784Z,26.20
2018-05-13T01:59:30.102Z,27.67
2018-05-13T02:01:58.408Z,26.20
2018-05-13T02:04:26.730Z,27.97
2018-05-13T02:06:55.399Z,27.73
2018-05-13T02:09:23.717Z,27.70
2018-05-13T02:11:52.019Z,29.87
2018-05-13T02:14:20.340Z,28.83
2018-05-13T02:16:48.667Z,30.33
2018-05-13T02:19:16.976Z,29.30
2018-05-13T02:21:45.275Z,30.53
2018-05-13T02:24:13.597Z,29.27
2018-05-13T02:26:41.928Z,30.13
2018-05-13T02:29:10.271Z,29.83
2018-05-13T02:31:38.597Z,31.50
2018-05-13T02:34:06.922Z,29.23
2018-05-13T02:36:35.228Z,30.20
2018-05-13T02:39:03.095Z,28.97
2018-05-13T02:41:31.611Z,31.43
2018-05-13T02:43:59.932Z,30.20
2018-05-13T02:46:29.235Z,30.00
2018-05-13T02:48:57.539Z,30.00
2018-05-13T02:51:25.874Z,28.83
2018-05-13T02:53:55.175Z,29.57
2018-05-13T02:56:23.443Z,28.93
2018-05-13T02:58:51.771Z,30.27
2018-05-13T03:01:20.084Z,30.00
2018-05-13T03:03:48.064Z,30.43
2018-05-13T03:06:16.368Z,31.00
2018-05-13T03:08:45.847Z,32.03
2018-05-13T03:11:14.153Z,29.90
2018-05-13T03:13:42.466Z,30.13
2018-05-13T03:16:10.772Z,31.70
2018-05-13T03:18:39.088Z,32.33
2018-05-13T03:21:07.399Z,35.33
2018-05-13T03:23:35.711Z,33.03
2018-05-13T03:26:03.813Z,31.90
2018-05-13T03:28:32.117Z,31.37
2018-05-13T03:31:00.429Z,33.77
2018-05-13T03:33:28.744Z,34.93
2018-05-13T03:35:57.054Z,33.97
2018-05-13T03:38:25.377Z,33.87
2018-05-13T03:40:53.687Z,34.67
2018-05-13T03:43:22.005Z,33.03
2018-05-13T03:45:50.327Z,32.77
2018-05-13T03:48:18.664Z,35.30
2018-05-13T03:50:46.994Z,35.50
2018-05-13T03:53:16.719Z,39.23
2018-05-13T03:55:45.050Z,31.10
2018-05-13T03:58:13.353Z,33.93
2018-05-13T04:00:41.671Z,35.13
2018-05-13T04:03:09.649Z,36.80
2018-05-13T04:05:37.751Z,32.87
2018-05-13T04:11:26.029Z,36.07
2018-05-13T04:14:05.472Z,36.70
2018-05-13T04:16:33.798Z,36.70
2018-05-13T04:19:02.103Z,37.60
2018-05-13T04:21:30.412Z,36.73
2018-05-13T04:23:58.719Z,36.57
2018-05-13T04:26:27.806Z,37.97
2018-05-13T04:28:56.129Z,39.30
2018-05-13T04:34:17.671Z,35.53
2018-05-13T04:36:45.966Z,39.37
2018-05-13T04:39:14.282Z,35.60
2018-05-13T04:41:42.590Z,36.57
2018-05-13T04:44:10.887Z,36.40
2018-05-13T04:46:39.195Z,35.90
2018-05-13T04:49:07.255Z,34.83
2018-05-13T04:51:35.572Z,32.67
2018-05-13T04:54:03.920Z,38.53
2018-05-13T04:56:32.244Z,42.53
2018-05-13T04:59:00.548Z,47.70
2018-05-13T05:01:28.855Z,48.00
2018-05-13T05:03:57.186Z,48.40
2018-05-13T05:06:25.498Z,46.73
2018-05-13T05:08:54.838Z,43.87
2018-05-13T05:14:19.167Z,44.63
2018-05-13T05:16:47.467Z,40.03
2018-05-13T05:19:16.557Z,40.77
2018-05-13T05:21:44.843Z,38.87
2018-05-13T05:24:13.200Z,44.23
2018-05-13T05:26:41.512Z,35.63
2018-05-13T05:29:10.596Z,41.93
2018-05-13T05:31:38.940Z,38.63
2018-05-13T05:34:07.403Z,40.30
2018-05-13T05:36:35.725Z,41.47
2018-05-13T05:39:03.247Z,38.30
2018-05-13T05:41:31.567Z,41.53
2018-05-13T05:43:59.874Z,38.67
2018-05-13T05:46:28.202Z,38.63
2018-05-13T05:48:56.536Z,33.47
2018-05-13T05:51:24.833Z,42.47
2018-05-13T05:53:53.141Z,35.63
2018-05-13T05:56:21.460Z,33.90
2018-05-13T05:58:49.779Z,40.83
2018-05-13T06:01:18.849Z,31.67
2018-05-13T06:03:47.970Z,35.33
2018-05-13T06:06:16.303Z,37.53
2018-05-13T06:08:44.616Z,34.67
2018-05-13T06:11:12.926Z,34.23
2018-05-13T06:13:46.613Z,38.50
2018-05-13T06:16:14.915Z,35.97
2018-05-13T06:18:43.248Z,32.93
2018-05-13T06:21:11.564Z,39.60
2018-05-13T06:23:39.873Z,35.17
2018-05-13T06:26:08.987Z,37.57
2018-05-13T06:28:37.321Z,38.83
2018-05-13T06:31:05.633Z,33.43
2018-05-13T06:33:33.952Z,34.57
2018-05-13T06:41:48.108Z,34.67
2018-05-13T06:44:16.410Z,40.03
2018-05-13T06:46:44.751Z,35.97
2018-05-13T06:49:13.064Z,37.00
2018-05-13T06:51:41.394Z,40.43
2018-05-13T06:54:10.502Z,39.80
2018-05-13T06:56:38.816Z,36.17
2018-05-13T06:59:07.154Z,37.23
2018-05-13T07:01:35.493Z,38.97
2018-05-13T07:04:03.802Z,38.37
2018-05-13T07:06:32.129Z,40.10
2018-05-13T07:09:01.392Z,41.50
2018-05-13T07:11:29.712Z,44.80
2018-05-13T07:13:58.824Z,40.70
2018-05-13T07:16:27.179Z,43.53
2018-05-13T07:18:56.133Z,41.23
2018-05-13T07:21:25.505Z,40.63
2018-05-13T07:23:53.843Z,39.60
2018-05-13T07:26:22.163Z,40.00
2018-05-13T07:28:50.520Z,40.83
2018-05-13T07:31:18.825Z,44.30
2018-05-13T07:33:47.932Z,40.53
2018-05-13T07:36:16.252Z,40.47
2018-05-13T07:38:44.583Z,43.10
2018-05-13T07:41:13.708Z,44.33
2018-05-13T07:43:43.733Z,46.47
2018-05-13T07:46:12.056Z,41.37
2018-05-13T07:48:40.383Z,39.97
2018-05-13T07:51:08.715Z,49.00
2018-05-13T07:53:37.059Z,44.13
2018-05-13T07:56:05.399Z,42.80
2018-05-13T07:58:33.717Z,49.23
2018-05-13T08:01:02.068Z,47.60
2018-05-13T08:03:30.383Z,50.13
2018-05-13T08:05:58.732Z,51.73
2018-05-13T08:08:27.259Z,54.70
2018-05-13T08:10:55.579Z,59.07
2018-05-13T08:13:23.897Z,55.30
2018-05-13T08:15:53.007Z,52.80
2018-05-13T08:18:21.324Z,60.67
2018-05-13T08:20:49.640Z,55.60
2018-05-13T08:26:12.465Z,56.23
2018-05-13T08:28:40.825Z,61.73
2018-05-13T08:31:09.152Z,64.07
2018-05-13T08:33:37.488Z,65.33
2018-05-13T08:36:05.819Z,66.63
2018-05-13T08:38:34.123Z,61.60
2018-05-13T08:41:02.456Z,61.43
2018-05-13T08:43:30.751Z,67.80
2018-05-13T08:45:59.076Z,65.60
2018-05-13T08:48:27.386Z,61.93
2018-05-13T08:50:55.921Z,62.17
2018-05-13T08:53:24.243Z,52.70
2018-05-13T08:55:53.532Z,61.07
2018-05-13T08:58:22.620Z,51.43
2018-05-13T09:00:50.951Z,51.70
2018-05-13T09:03:20.649Z,47.60
2018-05-13T09:05:48.972Z,53.47
2018-05-13T09:08:18.090Z,48.87
2018-05-13T09:10:46.420Z,49.63
2018-05-13T09:13:14.723Z,48.60
2018-05-13T09:15:43.034Z,51.30
2018-05-13T09:18:11.365Z,50.60
2018-05-13T09:20:39.744Z,48.07
2018-05-13T09:23:08.206Z,53.67
2018-05-13T09:25:36.716Z,53.10
2018-05-13T09:28:04.716Z,55.77
2018-05-13T09:30:33.069Z,52.37
2018-05-13T09:33:01.471Z,51.87
2018-05-13T09:35:29.976Z,51.47
2018-05-13T09:37:58.278Z,49.97
2018-05-13T09:40:26.654Z,54.30
2018-05-13T09:42:55.011Z,52.50
2018-05-13T09:45:23.316Z,48.73
2018-05-13T09:47:51.691Z,50.67
2018-05-13T09:50:20.077Z,49.20
2018-05-13T09:52:48.441Z,48.13
2018-05-13T09:55:16.853Z,53.37
2018-05-13T09:57:45.262Z,46.97
2018-05-13T10:00:13.454Z,52.77
2018-05-13T10:02:43.522Z,53.27
2018-05-13T10:05:11.888Z,50.83
2018-05-13T10:07:40.225Z,51.23
2018-05-13T10:10:08.589Z,48.00
2018-05-13T10:12:36.932Z,46.27
2018-05-13T10:15:05.274Z,41.03
2018-05-13T10:17:33.635Z,43.93
2018-05-13T10:20:01.990Z,42.73
2018-05-13T10:22:30.308Z,40.07
2018-05-13T10:24:59.773Z,41.67
2018-05-13T10:27:28.120Z,47.00
2018-05-13T10:29:56.561Z,46.97
2018-05-13T10:32:24.895Z,37.97
2018-05-13T10:34:53.224Z,35.80
2018-05-13T10:37:21.544Z,41.87
2018-05-13T10:39:49.878Z,39.63
2018-05-13T10:42:18.199Z,32.07
2018-05-13T10:44:46.565Z,37.10
2018-05-13T10:47:14.883Z,41.70
2018-05-13T10:49:43.998Z,37.53
2018-05-13T10:52:12.325Z,35.30
2018-05-13T10:54:40.650Z,36.90
2018-05-13T10:57:08.974Z,34.70
2018-05-13T10:59:37.295Z,28.80
2018-05-13T11:02:05.316Z,32.37
2018-05-13T11:04:33.645Z,34.33
2018-05-13T11:09:57.988Z,31.13
2018-05-13T11:12:26.322Z,28.50
2018-05-13T11:14:54.662Z,29.37
2018-05-13T11:17:22.979Z,30.27
2018-05-13T11:19:51.302Z,33.77
2018-05-13T11:22:20.428Z,28.87
2018-05-13T11:24:48.749Z,31.83
2018-05-13T11:27:17.070Z,31.37
2018-05-13T11:29:45.392Z,27.97
2018-05-13T11:32:13.717Z,34.33
2018-05-13T11:34:42.045Z,30.97
2018-05-13T11:37:10.380Z,30.90
2018-05-13T11:39:38.713Z,29.27
2018-05-13T11:42:07.071Z,32.40
2018-05-13T11:44:35.398Z,31.77
2018-05-13T11:47:04.970Z,28.63
2018-05-13T11:49:33.318Z,32.27
2018-05-13T11:52:01.628Z,29.63
2018-05-13T11:54:29.975Z,35.23
2018-05-13T11:56:58.327Z,28.13
2018-05-13T11:59:26.731Z,32.23
2018-05-13T12:01:56.586Z,35.20
2018-05-13T12:04:24.927Z,32.43
2018-05-13T12:06:53.250Z,30.67
2018-05-13T12:09:28.671Z,30.43
2018-05-13T12:11:57.003Z,34.83
2018-05-13T12:14:25.343Z,30.63
2018-05-13T12:16:53.677Z,34.37
2018-05-13T12:19:22.050Z,34.87
2018-05-13T12:21:50.388Z,29.47
2018-05-13T12:24:18.730Z,34.50
2018-05-13T12:26:47.062Z,32.73
2018-05-13T12:29:21.330Z,35.93
2018-05-13T12:31:55.497Z,36.23
2018-05-13T12:34:23.833Z,35.03
2018-05-13T12:36:52.156Z,35.33
2018-05-13T12:39:20.484Z,35.13
2018-05-13T12:41:48.823Z,32.50
2018-05-13T12:44:17.915Z,28.43
2018-05-13T12:46:46.285Z,30.27
2018-05-13T12:49:14.593Z,29.77
2018-05-13T12:51:43.688Z,31.43
2018-05-13T12:54:12.226Z,28.03
2018-05-13T12:56:40.570Z,29.23
2018-05-13T12:59:08.889Z,29.97
2018-05-13T13:01:37.249Z,28.73
2018-05-13T13:04:05.574Z,29.63
2018-05-13T13:06:33.911Z,28.73
2018-05-13T13:09:02.261Z,23.67
2018-05-13T13:11:30.770Z,30.50
2018-05-13T13:13:59.876Z,32.40
2018-05-13T13:16:27.963Z,28.40
2018-05-13T13:18:56.285Z,29.87
2018-05-13T13:21:24.606Z,31.27
2018-05-13T13:23:52.949Z,27.87
2018-05-13T13:26:22.074Z,29.77
2018-05-13T13:28:50.407Z,30.87
2018-05-13T13:31:18.765Z,31.73
2018-05-13T13:33:50.559Z,34.47
2018-05-13T13:36:18.942Z,33.50
2018-05-13T13:38:47.264Z,33.07
2018-05-13T13:41:16.377Z,33.00
2018-05-13T13:43:45.714Z,38.43
2018-05-13T13:46:14.214Z,36.27
2018-05-13T13:48:42.561Z,42.43
2018-05-13T13:51:10.884Z,37.07
2018-05-13T13:53:39.217Z,37.87
2018-05-13T13:56:08.763Z,36.17
2018-05-13T13:58:37.084Z,41.10
2018-05-13T14:01:05.420Z,42.73
2018-05-13T14:03:33.748Z,44.13
2018-05-13T14:06:02.076Z,37.27
2018-05-13T14:08:30.403Z,43.87
2018-05-13T14:10:58.711Z,52.93
2018-05-13T14:13:27.899Z,55.93
2018-05-13T14:15:56.295Z,52.73
2018-05-13T14:18:24.681Z,54.07
2018-05-13T14:20:53.050Z,50.67
2018-05-13T14:23:21.405Z,49.77
2018-05-13T14:25:49.727Z,54.97
2018-05-13T14:28:18.054Z,51.83
2018-05-13T14:30:46.384Z,59.70
2018-05-13T14:33:14.741Z,57.17
2018-05-13T14:35:43.061Z,56.00
2018-05-13T14:38:11.386Z,55.00
2018-05-13T14:40:39.712Z,54.67
2018-05-13T14:43:08.074Z,66.00
2018-05-13T14:45:36.404Z,62.03
2018-05-13T14:48:05.493Z,60.87
2018-05-13T14:50:33.830Z,66.90
2018-05-13T14:53:02.179Z,72.87
2018-05-13T14:55:30.704Z,83.03
2018-05-13T14:57:59.077Z,68.67
2018-05-13T15:00:27.613Z,67.53
2018-05-13T15:02:56.761Z,72.33
2018-05-13T15:05:26.049Z,68.40
2018-05-13T15:07:54.390Z,68.67
2018-05-13T15:10:22.744Z,67.27
2018-05-13T15:12:51.271Z,75.70
2018-05-13T15:15:19.620Z,71.47
2018-05-13T15:17:47.996Z,77.30
2018-05-13T15:20:16.321Z,66.87
2018-05-13T15:22:45.441Z,65.57
2018-05-13T15:25:13.794Z,62.53
2018-05-13T15:27:42.098Z,59.30
2018-05-13T15:30:10.450Z,60.70
2018-05-13T15:32:38.798Z,57.00
2018-05-13T15:35:07.127Z,57.70
2018-05-13T15:37:35.487Z,64.23
2018-05-13T15:40:03.639Z,53.60
2018-05-13T15:42:32.046Z,62.90
2018-05-13T15:45:00.488Z,53.50
2018-05-13T15:47:28.813Z,61.03
2018-05-13T15:49:56.832Z,58.37
2018-05-13T15:52:25.160Z,55.63
2018-05-13T15:54:53.544Z,65.23
2018-05-13T15:57:22.024Z,68.90
2018-05-13T15:59:50.344Z,71.93
2018-05-13T16:02:28.469Z,71.83
2018-05-13T16:04:56.881Z,58.37
2018-05-13T16:07:25.310Z,63.10
2018-05-13T16:09:53.645Z,65.43
2018-05-13T16:12:21.975Z,65.97
2018-05-13T16:14:50.313Z,67.90
2018-05-13T16:17:18.633Z,66.90
2018-05-13T16:19:47.005Z,59.67
2018-05-13T16:22:15.354Z,65.77
2018-05-13T16:24:43.692Z,65.83
2018-05-13T16:27:12.024Z,64.60
2018-05-13T16:29:40.399Z,67.67
2018-05-13T16:32:08.911Z,68.40
2018-05-13T16:34:37.230Z,73.63
2018-05-13T16:37:05.575Z,68.90
2018-05-13T16:39:33.911Z,64.67
2018-05-13T16:42:03.013Z,68.03
2018-05-13T16:44:31.353Z,69.13
2018-05-13T16:46:59.663Z,71.40
2018-05-13T16:49:28.748Z,69.07
2018-05-13T16:51:57.093Z,69.83
2018-05-13T16:54:25.419Z,76.03
2018-05-13T16:56:54.538Z,68.27
2018-05-13T16:59:22.900Z,66.63
2018-05-13T17:01:51.372Z,56.93
2018-05-13T17:04:19.702Z,60.37
2018-05-13T17:06:48.030Z,60.57
2018-05-13T17:09:16.542Z,62.43
2018-05-13T17:11:44.917Z,63.40
2018-05-13T17:14:14.016Z,68.77
2018-05-13T17:16:42.331Z,67.40
2018-05-13T17:19:10.683Z,69.50
2018-05-13T17:21:39.256Z,63.97
2018-05-13T17:24:07.582Z,66.80
2018-05-13T17:26:35.935Z,66.97
2018-05-13T17:29:04.239Z,59.27
2018-05-13T17:31:32.581Z,63.13
2018-05-13T17:34:00.920Z,60.57
2018-05-13T17:36:29.314Z,65.00
2018-05-13T17:38:57.735Z,63.67
2018-05-13T17:41:26.071Z,60.47
2018-05-13T17:43:54.372Z,60.90
2018-05-13T17:46:22.706Z,65.57
2018-05-13T17:48:51.806Z,65.13
2018-05-13T17:51:20.146Z,69.90
2018-05-13T17:53:48.471Z,68.20
2018-05-13T17:56:16.777Z,62.90
2018-05-13T17:58:45.103Z,67.13
2018-05-13T18:01:13.446Z,65.00
2018-05-13T18:03:41.758Z,65.57
2018-05-13T18:06:10.087Z,69.27
2018-05-13T18:08:39.215Z,62.10
2018-05-13T18:11:07.526Z,68.70
2018-05-13T18:13:35.881Z,63.93
2018-05-13T18:16:04.197Z,56.23
2018-05-13T18:18:32.748Z,57.83
2018-05-13T18:21:01.221Z,54.23
2018-05-13T18:23:30.096Z,65.67
2018-05-13T18:25:58.449Z,58.17
2018-05-13T18:28:26.776Z,60.17
2018-05-13T18:30:55.107Z,55.80
2018-05-13T18:33:23.449Z,63.67
2018-05-13T18:35:51.796Z,55.60
2018-05-13T18:38:20.111Z,58.17
2018-05-13T18:40:49.242Z,63.60
2018-05-13T18:43:17.603Z,63.93
2018-05-13T18:45:46.097Z,61.27
2018-05-13T18:48:14.412Z,63.83
2018-05-13T18:50:42.878Z,57.23
2018-05-13T18:53:11.188Z,57.20
2018-05-13T18:55:39.495Z,57.07
2018-05-13T18:58:08.591Z,60.90
2018-05-13T19:00:36.943Z,57.40
2018-05-13T19:03:05.277Z,54.50
2018-05-13T19:05:33.602Z,58.97
2018-05-13T19:08:02.000Z,52.07
2018-05-13T19:10:30.369Z,49.43
2018-05-13T19:12:58.896Z,53.30
2018-05-13T19:15:28.002Z,49.60
2018-05-13T19:17:56.856Z,49.13
2018-05-13T19:20:25.201Z,50.30
2018-05-13T19:22:53.526Z,48.63
2018-05-13T19:25:21.852Z,48.10
2018-05-13T19:27:50.186Z,44.47
2018-05-13T19:30:18.553Z,52.80
2018-05-13T19:32:46.884Z,46.63
2018-05-13T19:35:16.014Z,45.57
2018-05-13T19:37:44.325Z,49.17
2018-05-13T19:40:14.448Z,38.77
2018-05-13T19:42:43.557Z,47.13
2018-05-13T19:45:11.948Z,48.67
2018-05-13T19:47:40.268Z,46.90
2018-05-13T19:50:08.598Z,41.87
2018-05-13T19:52:36.822Z,47.77
2018-05-13T19:55:07.968Z,50.03
2018-05-13T19:57:37.061Z,48.57
2018-05-13T20:00:04.823Z,43.47
2018-05-13T20:02:33.143Z,48.53
2018-05-13T20:05:01.475Z,40.83
2018-05-13T20:07:29.820Z,41.97
2018-05-13T20:09:58.128Z,44.87
2018-05-13T20:12:27.229Z,42.60
2018-05-13T20:14:55.553Z,45.13
2018-05-13T20:17:24.671Z,39.13
2018-05-13T20:19:52.997Z,47.87
2018-05-13T20:22:21.341Z,44.73
2018-05-13T20:24:49.779Z,45.83
2018-05-13T20:27:18.113Z,49.73
2018-05-13T20:29:46.457Z,41.57
2018-05-13T20:32:14.784Z,43.70
2018-05-13T20:34:43.142Z,39.83
2018-05-13T20:37:11.486Z,46.10
2018-05-13T20:39:39.839Z,43.40
2018-05-13T20:42:08.384Z,43.07
2018-05-13T20:44:46.576Z,44.07
2018-05-13T20:47:18.144Z,41.90
2018-05-13T20:49:50.275Z,46.43
2018-05-13T20:52:18.592Z,47.73
2018-05-13T20:54:56.630Z,47.40
2018-05-13T20:57:24.949Z,47.57
2018-05-13T20:59:53.275Z,45.57
2018-05-13T21:02:21.607Z,48.30
2018-05-13T21:04:49.977Z,49.77
2018-05-13T21:07:27.251Z,45.47
2018-05-13T21:09:55.568Z,45.07
2018-05-13T21:12:23.881Z,47.63
2018-05-13T21:14:52.985Z,47.77
2018-05-13T21:17:21.326Z,46.23
2018-05-13T21:19:49.666Z,45.40
2018-05-13T21:22:18.015Z,48.33
2018-05-13T21:24:46.350Z,52.63
2018-05-13T21:27:14.691Z,46.27
2018-05-13T21:29:43.768Z,51.43
2018-05-13T21:32:12.129Z,51.30
2018-05-13T21:34:43.725Z,51.93
2018-05-13T21:37:24.786Z,51.73
2018-05-13T21:39:53.124Z,53.00
2018-05-13T21:42:21.444Z,64.30
2018-05-13T21:44:49.769Z,58.27
2018-05-13T21:47:18.100Z,60.03
2018-05-13T21:49:46.444Z,60.77
2018-05-13T21:52:14.742Z,65.53
2018-05-13T21:57:17.432Z,65.33
2018-05-13T21:59:45.760Z,67.30
2018-05-13T22:02:14.079Z,65.07
2018-05-13T22:04:53.470Z,70.97
2018-05-13T22:07:21.879Z,65.67
2018-05-13T22:09:50.301Z,65.00
2018-05-13T22:12:18.639Z,65.90
2018-05-13T22:14:46.962Z,70.50
2018-05-13T22:17:17.040Z,85.17
2018-05-13T22:19:45.350Z,85.50
2018-05-13T22:22:13.659Z,94.03
2018-05-13T22:24:42.005Z,88.80
2018-05-13T22:27:11.123Z,92.30
2018-05-13T22:29:42.746Z,88.23
2018-05-13T22:32:11.062Z,90.33
2018-05-13T22:34:39.396Z,88.13
2018-05-13T22:37:07.731Z,89.23
2018-05-13T22:39:36.051Z,85.17
2018-05-13T22:42:04.372Z,81.30
2018-05-13T22:44:32.689Z,75.70
2018-05-13T22:47:01.013Z,69.47
2018-05-13T22:49:29.333Z,71.23
2018-05-13T22:51:57.671Z,71.03
2018-05-13T22:54:25.971Z,71.77
2018-05-13T22:56:54.284Z,66.17
2018-05-13T22:59:25.796Z,68.43
2018-05-13T23:01:54.108Z,67.47
2018-05-13T23:04:22.438Z,75.30
2018-05-13T23:06:50.772Z,71.20
2018-05-13T23:09:19.876Z,75.80
2018-05-13T23:11:48.180Z,77.30
2018-05-13T23:14:16.495Z,72.13
2018-05-13T23:16:44.800Z,67.83
2018-05-13T23:19:13.147Z,69.87
2018-05-13T23:21:41.451Z,66.33
2018-05-13T23:24:09.772Z,65.00
2018-05-13T23:26:38.112Z,75.73
2018-05-13T23:29:06.442Z,75.07
2018-05-13T23:31:34.765Z,69.23
2018-05-13T23:34:03.069Z,76.80
2018-05-13T23:36:31.378Z,76.97
2018-05-13T23:39:00.456Z,91.17
2018-05-13T23:41:29.523Z,84.37
2018-05-13T23:44:01.035Z,88.13
2018-05-13T23:49:06.466Z,88.27
2018-05-13T23:51:34.818Z,95.53
2018-05-13T23:54:03.303Z,88.80
2018-05-13T23:56:31.614Z,92.87
2018-05-13T23:58:59.941Z,111.07
